createdAt,value
2018-03-25T00:01:28.224Z,20.30
2018-03-25T00:03:55.683Z,22.17
2018-03-25T00:06:23.172Z,19.77
2018-03-25T00:08:50.639Z,21.37
2018-03-25T00:11:18.120Z,24.60
2018-03-25T00:13:45.588Z,22.57
2018-03-25T00:16:13.067Z,23.73
2018-03-25T00:18:40.526Z,21.93
2018-03-25T00:21:08.011Z,21.60
2018-03-25T00:23:35.471Z,21.70
2018-03-25T00:26:02.964Z,23.00
2018-03-25T00:28:30.431Z,20.83
2018-03-25T00:30:57.919Z,21.40
2018-03-25T00:33:25.378Z,24.67
2018-03-25T00:35:52.855Z,25.57
2018-03-25T00:38:20.316Z,22.17
2018-03-25T00:40:47.798Z,23.27
2018-03-25T00:43:15.260Z,23.20
2018-03-25T00:45:42.775Z,28.93
2018-03-25T00:48:10.240Z,27.90
2018-03-25T00:50:37.715Z,24.80
2018-03-25T00:53:05.170Z,22.97
2018-03-25T00:55:32.655Z,22.47
2018-03-25T00:58:00.115Z,24.07
2018-03-25T01:00:27.601Z,21.17
2018-03-25T01:02:55.078Z,23.00
2018-03-25T01:05:22.575Z,22.50
2018-03-25T01:07:50.032Z,21.93
2018-03-25T01:10:19.237Z,23.40
2018-03-25T01:12:46.701Z,19.17
2018-03-25T01:15:14.188Z,22.20
2018-03-25T01:17:41.655Z,25.83
2018-03-25T01:20:09.140Z,24.13
2018-03-25T01:22:36.596Z,20.63
2018-03-25T01:25:04.077Z,20.23
2018-03-25T01:27:31.540Z,20.03
2018-03-25T01:29:59.029Z,20.10
2018-03-25T01:32:26.505Z,21.20
2018-03-25T01:34:53.984Z,21.47
2018-03-25T01:37:21.467Z,21.27
2018-03-25T01:39:48.939Z,21.87
2018-03-25T01:42:16.424Z,19.57
2018-03-25T01:44:43.883Z,20.20
2018-03-25T01:47:11.364Z,19.90
2018-03-25T01:49:38.830Z,21.23
2018-03-25T01:52:06.307Z,19.80
2018-03-25T01:54:33.768Z,20.43
2018-03-25T01:57:01.268Z,21.33
2018-03-25T01:59:28.731Z,23.20
2018-03-25T02:01:56.211Z,22.63
2018-03-25T02:04:23.679Z,23.03
2018-03-25T02:06:51.160Z,20.10
2018-03-25T02:09:18.627Z,21.50
2018-03-25T02:11:46.112Z,18.87
2018-03-25T02:14:13.587Z,22.07
2018-03-25T02:16:41.064Z,23.40
2018-03-25T02:19:08.532Z,23.43
2018-03-25T02:21:36.024Z,22.10
2018-03-25T02:24:03.488Z,22.13
2018-03-25T02:26:30.968Z,22.33
2018-03-25T02:28:58.428Z,22.00
2018-03-25T02:31:25.904Z,22.57
2018-03-25T02:33:53.369Z,23.53
2018-03-25T02:36:20.850Z,22.20
2018-03-25T02:38:48.311Z,21.83
2018-03-25T02:41:15.788Z,21.20
2018-03-25T02:43:43.241Z,21.17
2018-03-25T02:46:10.725Z,21.43
2018-03-25T02:48:38.245Z,19.83
2018-03-25T02:51:05.695Z,23.13
2018-03-25T02:53:33.150Z,22.47
2018-03-25T02:56:00.606Z,24.57
2018-03-25T02:58:28.084Z,20.70
2018-03-25T03:00:55.548Z,22.07
2018-03-25T03:03:23.026Z,23.17
2018-03-25T03:05:50.670Z,21.67
2018-03-25T03:08:18.149Z,22.40
2018-03-25T03:10:45.607Z,22.57
2018-03-25T03:13:13.094Z,24.03
2018-03-25T03:15:40.552Z,25.33
2018-03-25T03:18:08.035Z,24.97
2018-03-25T03:20:35.507Z,26.73
2018-03-25T03:23:02.990Z,24.27
2018-03-25T03:25:30.455Z,25.67
2018-03-25T03:27:57.931Z,22.60
2018-03-25T03:30:25.388Z,23.17
2018-03-25T03:32:52.879Z,24.23
2018-03-25T03:35:20.327Z,24.67
2018-03-25T03:37:47.808Z,22.60
2018-03-25T03:40:15.267Z,25.07
2018-03-25T03:42:42.739Z,25.47
2018-03-25T03:45:10.199Z,27.77
2018-03-25T03:47:37.679Z,25.33
2018-03-25T03:50:05.142Z,23.80
2018-03-25T03:52:32.652Z,27.87
2018-03-25T03:55:00.111Z,27.30
2018-03-25T03:57:27.587Z,28.57
2018-03-25T03:59:55.054Z,25.00
2018-03-25T04:02:22.536Z,24.67
2018-03-25T04:04:49.994Z,23.17
2018-03-25T04:07:17.490Z,26.37
2018-03-25T04:09:44.943Z,26.80
2018-03-25T04:12:12.420Z,26.17
2018-03-25T04:14:39.888Z,24.57
2018-03-25T04:17:07.743Z,23.80
2018-03-25T04:19:35.211Z,23.87
2018-03-25T04:22:02.676Z,28.10
2018-03-25T04:24:30.163Z,24.00
2018-03-25T04:26:57.627Z,27.47
2018-03-25T04:29:25.108Z,24.67
2018-03-25T04:31:52.576Z,24.20
2018-03-25T04:34:20.055Z,26.30
2018-03-25T04:36:47.515Z,27.47
2018-03-25T04:39:15.003Z,25.23
2018-03-25T04:41:42.475Z,27.80
2018-03-25T04:44:09.955Z,21.43
2018-03-25T04:46:37.691Z,25.17
2018-03-25T04:49:05.406Z,23.83
2018-03-25T04:51:32.895Z,28.13
2018-03-25T04:54:01.771Z,23.23
2018-03-25T04:56:30.119Z,23.40
2018-03-25T04:58:57.680Z,26.07
2018-03-25T05:01:25.480Z,26.33
2018-03-25T05:03:53.226Z,27.70
2018-03-25T05:06:21.008Z,28.00
2018-03-25T05:08:50.343Z,25.30
2018-03-25T05:11:17.832Z,25.70
2018-03-25T05:13:45.355Z,23.53
2018-03-25T05:16:13.609Z,29.07
2018-03-25T05:18:41.634Z,26.60
2018-03-25T05:21:10.943Z,28.17
2018-03-25T05:23:38.775Z,26.27
2018-03-25T05:26:06.242Z,27.93
2018-03-25T05:28:33.784Z,27.60
2018-03-25T05:31:01.503Z,27.67
2018-03-25T05:33:29.035Z,27.70
2018-03-25T05:35:56.575Z,30.10
2018-03-25T05:38:24.083Z,28.50
2018-03-25T05:40:51.543Z,27.20
2018-03-25T05:43:19.028Z,30.43
2018-03-25T05:45:46.538Z,27.60
2018-03-25T05:48:14.048Z,27.60
2018-03-25T05:50:42.422Z,26.30
2018-03-25T05:53:09.944Z,25.13
2018-03-25T05:55:38.556Z,22.97
2018-03-25T05:58:06.016Z,25.47
2018-03-25T06:00:33.611Z,23.30
2018-03-25T06:03:01.103Z,22.43
2018-03-25T06:05:28.826Z,22.53
2018-03-25T06:07:56.548Z,20.27
2018-03-25T06:10:24.076Z,20.40
2018-03-25T06:12:51.950Z,19.90
2018-03-25T06:15:19.474Z,22.63
2018-03-25T06:17:47.311Z,21.17
2018-03-25T06:20:15.619Z,20.37
2018-03-25T06:22:44.190Z,20.77
2018-03-25T06:25:11.679Z,19.83
2018-03-25T06:27:39.973Z,21.23
2018-03-25T06:30:07.452Z,21.27
2018-03-25T06:32:34.957Z,19.27
2018-03-25T06:35:02.463Z,21.47
2018-03-25T06:37:29.958Z,20.13
2018-03-25T06:39:57.463Z,20.73
2018-03-25T06:42:24.920Z,23.93
2018-03-25T06:44:52.395Z,21.60
2018-03-25T06:47:19.858Z,21.17
2018-03-25T06:49:47.347Z,20.17
2018-03-25T06:52:15.751Z,18.77
2018-03-25T06:54:43.258Z,21.73
2018-03-25T06:57:11.091Z,19.97
2018-03-25T06:59:38.599Z,20.20
2018-03-25T07:02:06.094Z,22.13
2018-03-25T07:04:33.646Z,19.77
2018-03-25T07:07:02.071Z,19.97
2018-03-25T07:09:30.012Z,19.43
2018-03-25T07:11:57.481Z,20.57
2018-03-25T07:14:25.517Z,22.73
2018-03-25T07:16:52.944Z,19.97
2018-03-25T07:19:20.432Z,19.90
2018-03-25T07:21:47.916Z,19.03
2018-03-25T07:24:15.887Z,19.47
2018-03-25T07:26:43.368Z,20.30
2018-03-25T07:29:10.851Z,19.40
2018-03-25T07:31:38.603Z,22.13
2018-03-25T07:34:06.067Z,17.53
2018-03-25T07:36:33.551Z,17.50
2018-03-25T07:39:01.021Z,18.30
2018-03-25T07:41:28.602Z,18.47
2018-03-25T07:43:56.343Z,18.60
2018-03-25T07:46:24.167Z,19.03
2018-03-25T07:48:52.188Z,18.60
2018-03-25T07:51:19.908Z,20.27
2018-03-25T07:53:47.929Z,16.47
2018-03-25T07:56:15.447Z,20.13
2018-03-25T07:58:43.139Z,19.33
2018-03-25T08:01:10.672Z,20.67
2018-03-25T08:03:38.145Z,17.30
2018-03-25T08:06:05.909Z,18.93
2018-03-25T08:08:34.000Z,21.73
2018-03-25T08:11:01.511Z,17.40
2018-03-25T08:13:28.964Z,18.73
2018-03-25T08:15:56.864Z,22.67
2018-03-25T08:18:24.336Z,19.70
2018-03-25T08:20:52.318Z,19.10
2018-03-25T08:23:19.858Z,18.30
2018-03-25T08:25:48.294Z,19.93
2018-03-25T08:28:16.606Z,20.10
2018-03-25T08:30:44.083Z,19.93
2018-03-25T08:33:12.328Z,19.10
2018-03-25T08:35:40.086Z,20.43
2018-03-25T08:38:07.579Z,20.83
2018-03-25T08:40:35.145Z,20.60
2018-03-25T08:43:02.607Z,20.20
2018-03-25T08:45:30.108Z,20.50
2018-03-25T08:47:57.920Z,19.10
2018-03-25T08:50:25.386Z,21.47
2018-03-25T08:52:52.161Z,25.47
2018-03-25T08:58:19.229Z,22.63
2018-03-25T09:00:46.744Z,22.60
2018-03-25T09:03:14.275Z,20.23
2018-03-25T09:05:41.763Z,23.43
2018-03-25T09:08:09.521Z,20.20
2018-03-25T09:10:36.995Z,20.87
2018-03-25T09:13:04.893Z,20.73
2018-03-25T09:15:32.369Z,19.17
2018-03-25T09:17:59.843Z,24.37
2018-03-25T09:20:27.335Z,20.37
2018-03-25T09:22:54.822Z,22.63
2018-03-25T09:25:22.292Z,21.73
2018-03-25T09:27:50.162Z,22.77
2018-03-25T09:30:18.545Z,23.13
2018-03-25T09:32:46.055Z,22.07
2018-03-25T09:35:13.574Z,22.30
2018-03-25T09:37:41.331Z,23.00
2018-03-25T09:40:09.891Z,23.53
2018-03-25T09:42:37.408Z,20.63
2018-03-25T09:45:05.124Z,21.23
2018-03-25T09:47:32.886Z,20.57
2018-03-25T09:50:00.403Z,21.90
2018-03-25T09:52:27.883Z,26.17
2018-03-25T09:54:55.383Z,21.27
2018-03-25T09:57:22.908Z,23.63
2018-03-25T09:59:51.152Z,20.13
2018-03-25T10:02:18.631Z,22.53
2018-03-25T10:04:46.151Z,23.73
2018-03-25T10:07:13.668Z,25.57
2018-03-25T10:09:41.162Z,23.90
2018-03-25T10:12:09.172Z,22.63
2018-03-25T10:14:36.641Z,23.03
2018-03-25T10:17:04.127Z,22.27
2018-03-25T10:19:31.852Z,22.30
2018-03-25T10:21:59.336Z,22.33
2018-03-25T10:24:26.864Z,23.40
2018-03-25T10:26:54.351Z,21.63
2018-03-25T10:29:21.891Z,23.00
2018-03-25T10:31:49.706Z,23.13
2018-03-25T10:34:17.256Z,22.30
2018-03-25T10:36:44.787Z,23.03
2018-03-25T10:39:12.308Z,22.77
2018-03-25T10:41:39.774Z,20.87
2018-03-25T10:44:07.765Z,22.37
2018-03-25T10:46:35.311Z,24.53
2018-03-25T10:49:03.692Z,22.63
2018-03-25T10:51:31.653Z,23.40
2018-03-25T10:53:59.171Z,25.30
2018-03-25T10:56:26.690Z,21.57
2018-03-25T10:58:55.103Z,22.40
2018-03-25T11:01:22.590Z,24.57
2018-03-25T11:03:50.152Z,22.87
2018-03-25T11:06:18.327Z,23.60
2018-03-25T11:08:46.060Z,22.70
2018-03-25T11:11:14.711Z,23.43
2018-03-25T11:13:42.559Z,22.27
2018-03-25T11:16:10.315Z,23.73
2018-03-25T11:18:38.559Z,22.10
2018-03-25T11:21:06.019Z,22.93
2018-03-25T11:23:33.561Z,21.30
2018-03-25T11:26:01.022Z,22.70
2018-03-25T11:28:28.509Z,22.13
2018-03-25T11:30:56.259Z,21.93
2018-03-25T11:33:23.767Z,22.33
2018-03-25T11:35:51.230Z,20.17
2018-03-25T11:38:18.719Z,23.63
2018-03-25T11:40:46.176Z,23.00
2018-03-25T11:43:13.682Z,22.00
2018-03-25T11:45:41.812Z,25.43
2018-03-25T11:48:10.094Z,21.80
2018-03-25T11:50:38.023Z,23.47
2018-03-25T11:53:05.540Z,23.20
2018-03-25T11:55:33.315Z,22.27
2018-03-25T11:58:00.787Z,21.97
2018-03-25T12:00:28.311Z,24.00
2018-03-25T12:02:56.488Z,25.37
2018-03-25T12:05:24.339Z,22.57
2018-03-25T12:07:51.836Z,20.43
2018-03-25T12:10:19.350Z,22.57
2018-03-25T12:12:47.059Z,21.20
2018-03-25T12:15:14.555Z,21.33
2018-03-25T12:17:42.282Z,21.83
2018-03-25T12:20:09.826Z,22.50
2018-03-25T12:22:37.755Z,21.10
2018-03-25T12:25:05.934Z,20.87
2018-03-25T12:27:33.399Z,21.80
2018-03-25T12:30:00.928Z,21.73
2018-03-25T12:32:28.647Z,22.20
2018-03-25T12:34:56.200Z,19.33
2018-03-25T12:37:23.926Z,21.10
2018-03-25T12:39:52.542Z,20.37
2018-03-25T12:42:20.015Z,21.10
2018-03-25T12:44:47.579Z,20.33
2018-03-25T12:47:15.888Z,20.77
2018-03-25T12:49:43.857Z,21.43
2018-03-25T12:52:11.737Z,21.60
2018-03-25T12:54:39.216Z,23.60
2018-03-25T12:57:06.942Z,22.57
2018-03-25T12:59:34.472Z,21.13
2018-03-25T13:02:02.163Z,21.17
2018-03-25T13:04:29.691Z,21.60
2018-03-25T13:06:57.545Z,20.17
2018-03-25T13:09:25.071Z,20.90
2018-03-25T13:11:52.544Z,21.87
2018-03-25T13:14:20.341Z,18.67
2018-03-25T13:16:48.045Z,20.70
2018-03-25T13:19:16.007Z,20.83
2018-03-25T13:21:43.472Z,19.10
2018-03-25T13:24:10.943Z,20.33
2018-03-25T13:26:38.467Z,19.93
2018-03-25T13:29:05.971Z,18.80
2018-03-25T13:31:38.082Z,20.07
2018-03-25T13:34:05.547Z,20.73
2018-03-25T13:36:33.098Z,19.83
2018-03-25T13:39:00.572Z,19.53
2018-03-25T13:41:28.398Z,20.87
2018-03-25T13:43:56.487Z,19.00
2018-03-25T13:46:24.948Z,20.37
2018-03-25T13:48:54.538Z,19.13
2018-03-25T13:51:22.031Z,19.53
2018-03-25T13:53:49.517Z,20.37
2018-03-25T13:56:16.999Z,20.90
2018-03-25T13:58:44.936Z,20.67
2018-03-25T14:01:12.431Z,20.03
2018-03-25T14:03:40.278Z,19.20
2018-03-25T14:06:07.763Z,20.37
2018-03-25T14:08:35.254Z,19.57
2018-03-25T14:11:02.755Z,18.87
2018-03-25T14:13:30.219Z,19.63
2018-03-25T14:15:58.084Z,18.00
2018-03-25T14:18:25.703Z,19.97
2018-03-25T14:20:54.188Z,19.93
2018-03-25T14:23:21.656Z,20.10
2018-03-25T14:25:49.177Z,19.10
2018-03-25T14:28:16.644Z,20.85
2018-03-25T14:30:44.152Z,20.80
2018-03-25T14:33:12.042Z,20.90
2018-03-25T14:35:39.548Z,21.33
2018-03-25T14:38:07.286Z,20.83
2018-03-25T14:40:34.772Z,20.17
2018-03-25T14:43:02.284Z,20.43
2018-03-25T14:45:29.835Z,20.60
2018-03-25T14:47:57.586Z,19.87
2018-03-25T14:50:25.113Z,21.20
2018-03-25T14:52:52.659Z,21.67
2018-03-25T14:55:20.751Z,20.27
2018-03-25T14:57:49.151Z,20.50
2018-03-25T15:00:17.036Z,21.47
2018-03-25T15:02:44.630Z,22.93
2018-03-25T15:05:12.088Z,21.83
2018-03-25T15:07:41.396Z,23.80
2018-03-25T15:10:08.887Z,21.03
2018-03-25T15:12:36.379Z,21.13
2018-03-25T15:15:05.668Z,18.97
2018-03-25T15:17:33.383Z,22.93
2018-03-25T15:20:00.895Z,20.77
2018-03-25T15:22:28.803Z,21.43
2018-03-25T15:24:56.311Z,21.17
2018-03-25T15:27:23.828Z,20.97
2018-03-25T15:29:51.291Z,21.03
2018-03-25T15:32:19.647Z,21.43
2018-03-25T15:34:48.011Z,21.60
2018-03-25T15:37:15.532Z,19.57
2018-03-25T15:39:43.385Z,19.27
2018-03-25T15:42:10.939Z,19.93
2018-03-25T15:44:38.496Z,19.23
2018-03-25T15:47:06.427Z,22.10
2018-03-25T15:49:34.898Z,20.77
2018-03-25T15:52:02.696Z,22.17
2018-03-25T15:54:30.587Z,20.87
2018-03-25T15:56:58.075Z,20.80
2018-03-25T15:59:25.820Z,22.80
2018-03-25T16:01:53.299Z,18.93
2018-03-25T16:04:20.831Z,19.87
2018-03-25T16:06:48.654Z,22.47
2018-03-25T16:09:16.151Z,21.40
2018-03-25T16:11:43.638Z,21.93
2018-03-25T16:14:11.984Z,24.97
2018-03-25T16:16:40.379Z,23.17
2018-03-25T16:19:07.875Z,22.93
2018-03-25T16:21:35.710Z,24.50
2018-03-25T16:24:03.560Z,21.60
2018-03-25T16:26:31.030Z,25.80
2018-03-25T16:28:58.559Z,22.70
2018-03-25T16:31:26.568Z,26.03
2018-03-25T16:33:54.483Z,21.70
2018-03-25T16:36:22.112Z,23.50
2018-03-25T16:38:51.023Z,24.63
2018-03-25T16:41:18.843Z,23.57
2018-03-25T16:43:46.730Z,24.20
2018-03-25T16:46:14.914Z,25.20
2018-03-25T16:48:43.267Z,23.47
2018-03-25T16:51:11.015Z,24.70
2018-03-25T16:53:38.508Z,28.07
2018-03-25T16:56:05.976Z,26.97
2018-03-25T16:58:33.467Z,26.80
2018-03-25T17:01:00.980Z,30.07
2018-03-25T17:03:28.467Z,27.47
2018-03-25T17:05:55.931Z,26.80
2018-03-25T17:08:23.829Z,27.60
2018-03-25T17:10:51.400Z,27.77
2018-03-25T17:13:18.923Z,28.07
2018-03-25T17:15:47.571Z,27.23
2018-03-25T17:18:15.141Z,28.50
2018-03-25T17:20:42.640Z,25.17
2018-03-25T17:23:10.135Z,29.07
2018-03-25T17:25:37.624Z,27.87
2018-03-25T17:28:05.155Z,28.97
2018-03-25T17:30:33.760Z,25.80
2018-03-25T17:33:03.016Z,29.07
2018-03-25T17:35:30.762Z,28.70
2018-03-25T17:37:58.247Z,29.97
2018-03-25T17:40:25.712Z,27.27
2018-03-25T17:42:53.603Z,25.03
2018-03-25T17:45:21.067Z,25.60
2018-03-25T17:47:48.551Z,26.47
2018-03-25T17:50:16.430Z,28.27
2018-03-25T17:52:43.927Z,27.67
2018-03-25T17:55:11.779Z,30.13
2018-03-25T17:57:39.251Z,30.60
2018-03-25T18:00:06.766Z,30.57
2018-03-25T18:02:34.263Z,28.53
2018-03-25T18:05:02.084Z,29.67
2018-03-25T18:07:29.552Z,30.53
2018-03-25T18:09:57.075Z,30.10
2018-03-25T18:12:25.034Z,35.23
2018-03-25T18:14:52.619Z,33.13
2018-03-25T18:17:33.464Z,35.00
2018-03-25T18:19:47.826Z,34.47
2018-03-25T18:22:15.632Z,32.47
2018-03-25T18:24:43.339Z,31.27
2018-03-25T18:27:10.805Z,32.97
2018-03-25T18:29:39.097Z,30.17
2018-03-25T18:32:06.567Z,31.47
2018-03-25T18:34:34.095Z,34.37
2018-03-25T18:37:01.960Z,31.73
2018-03-25T18:39:29.439Z,29.13
2018-03-25T18:41:56.952Z,27.67
2018-03-25T18:44:25.433Z,32.63
2018-03-25T18:46:52.939Z,28.63
2018-03-25T18:49:20.424Z,32.23
2018-03-25T18:51:47.899Z,32.93
2018-03-25T18:54:15.429Z,31.00
2018-03-25T18:56:42.930Z,31.50
2018-03-25T18:59:10.450Z,30.73
2018-03-25T19:01:37.907Z,32.63
2018-03-25T19:04:05.388Z,31.67
2018-03-25T19:06:32.863Z,32.03
2018-03-25T19:09:00.357Z,29.53
2018-03-25T19:11:28.954Z,32.43
2018-03-25T19:13:56.919Z,31.73
2018-03-25T19:16:24.404Z,30.80
2018-03-25T19:18:51.899Z,31.40
2018-03-25T19:21:19.636Z,32.87
2018-03-25T19:23:47.336Z,31.60
2018-03-25T19:26:15.655Z,30.27
2018-03-25T19:28:43.144Z,31.30
2018-03-25T19:31:10.635Z,33.13
2018-03-25T19:33:38.332Z,30.90
2018-03-25T19:36:05.832Z,35.00
2018-03-25T19:38:33.324Z,31.13
2018-03-25T19:41:00.807Z,33.47
2018-03-25T19:43:28.639Z,32.17
2018-03-25T19:45:56.153Z,30.50
2018-03-25T19:48:23.655Z,36.10
2018-03-25T19:50:51.140Z,32.17
2018-03-25T19:53:18.627Z,31.43
2018-03-25T19:55:46.231Z,34.00
2018-03-25T19:58:13.724Z,33.47
2018-03-25T20:00:41.781Z,33.77
2018-03-25T20:03:09.817Z,30.53
2018-03-25T20:05:37.341Z,32.30
2018-03-25T20:08:05.255Z,33.93
2018-03-25T20:10:32.743Z,35.10
2018-03-25T20:13:00.251Z,35.83
2018-03-25T20:15:28.618Z,31.80
2018-03-25T20:17:57.060Z,33.23
2018-03-25T20:20:24.542Z,33.37
2018-03-25T20:22:52.072Z,36.60
2018-03-25T20:25:19.578Z,34.50
2018-03-25T20:27:47.047Z,32.63
2018-03-25T20:30:14.662Z,36.50
2018-03-25T20:32:42.151Z,34.97
2018-03-25T20:35:09.636Z,36.83
2018-03-25T20:37:37.189Z,35.30
2018-03-25T20:40:04.679Z,35.10
2018-03-25T20:42:32.170Z,35.43
2018-03-25T20:44:59.660Z,36.73
2018-03-25T20:47:27.406Z,36.80
2018-03-25T20:49:54.912Z,35.70
2018-03-25T20:52:23.226Z,37.77
2018-03-25T20:54:50.727Z,35.87
2018-03-25T20:57:18.466Z,38.83
2018-03-25T20:59:46.419Z,36.60
2018-03-25T21:02:13.896Z,36.47
2018-03-25T21:04:41.591Z,35.20
2018-03-25T21:07:09.075Z,37.30
2018-03-25T21:09:36.780Z,40.10
2018-03-25T21:12:04.424Z,38.07
2018-03-25T21:14:31.886Z,39.43
2018-03-25T21:16:59.768Z,39.37
2018-03-25T21:19:27.267Z,35.37
2018-03-25T21:21:54.737Z,37.80
2018-03-25T21:24:22.235Z,36.27
2018-03-25T21:26:50.190Z,37.53
2018-03-25T21:29:17.671Z,41.60
2018-03-25T21:31:45.151Z,39.37
2018-03-25T21:34:12.637Z,37.90
2018-03-25T21:36:40.149Z,38.70
2018-03-25T21:39:07.671Z,39.10
2018-03-25T21:41:35.542Z,37.67
2018-03-25T21:44:03.007Z,37.47
2018-03-25T21:46:30.707Z,39.60
2018-03-25T21:48:58.163Z,37.53
2018-03-25T21:51:25.657Z,37.93
2018-03-25T21:53:53.532Z,37.77
2018-03-25T21:56:21.042Z,36.20
2018-03-25T21:58:48.751Z,40.80
2018-03-25T22:01:16.522Z,39.57
2018-03-25T22:03:44.031Z,37.83
2018-03-25T22:06:11.530Z,37.77
2018-03-25T22:08:38.991Z,37.77
2018-03-25T22:11:07.581Z,38.87
2018-03-25T22:13:35.128Z,41.33
2018-03-25T22:16:02.583Z,38.53
2018-03-25T22:18:32.302Z,37.33
2018-03-25T22:21:00.035Z,39.63
2018-03-25T22:23:27.523Z,40.13
2018-03-25T22:25:55.216Z,37.70
2018-03-25T22:28:23.000Z,38.23
2018-03-25T22:30:50.527Z,37.13
2018-03-25T22:33:18.482Z,36.67
2018-03-25T22:35:46.489Z,41.27
2018-03-25T22:38:14.099Z,39.20
2018-03-25T22:40:41.584Z,40.47
2018-03-25T22:43:09.472Z,40.33
2018-03-25T22:45:36.932Z,36.03
2018-03-25T22:48:04.416Z,40.47
2018-03-25T22:50:31.880Z,39.07
2018-03-25T22:52:59.359Z,39.40
2018-03-25T22:55:27.715Z,39.73
2018-03-25T22:57:55.638Z,40.20
2018-03-25T23:00:23.095Z,41.60
2018-03-25T23:02:50.582Z,40.60
2018-03-25T23:05:18.040Z,40.10
2018-03-25T23:07:45.559Z,38.90
2018-03-25T23:10:13.019Z,40.67
2018-03-25T23:12:40.511Z,40.67
2018-03-25T23:15:08.516Z,40.77
2018-03-25T23:17:35.995Z,41.97
2018-03-25T23:20:03.456Z,40.67
2018-03-25T23:22:30.963Z,44.67
2018-03-25T23:24:58.419Z,41.30
2018-03-25T23:27:26.148Z,41.07
2018-03-25T23:29:53.640Z,38.43
2018-03-25T23:32:21.099Z,39.33
2018-03-25T23:34:48.623Z,39.67
2018-03-25T23:37:16.144Z,42.27
2018-03-25T23:39:43.651Z,39.97
2018-03-25T23:42:11.147Z,39.53
2018-03-25T23:44:39.092Z,39.73
2018-03-25T23:47:07.567Z,38.37
2018-03-25T23:49:35.489Z,39.50
2018-03-25T23:52:03.011Z,36.13
2018-03-25T23:54:30.488Z,39.63
2018-03-25T23:56:58.331Z,37.83
2018-03-25T23:59:25.812Z,40.20
